KLCG

Wayne Municipal / Stan Morris Field Airport

Wayne, Nebraska, USA
METAR KLCG 230855Z AUTO 00000KT 10SM CLR M02/M04 A3033 RMK AO2 T10221045
Observed Flight Rules
Oct-23 @ 08:55 UTC (45 minutes ago) Visual Flight Rules
Visibility Clouds
10 miles
  • Clear skies
Temperatures Readings
Current -2°C / 28°F
Dewpoint -5°C / 23°F
Humidity 80%
Altimeter 30.33" Hg
Pressure 1027 hPa
Elevation 436
METAR KLCG 230855Z AUTO 00000KT 10SM CLR M02/M04 A3033 RMK AO2 T10221045
Observed Flight Rules
Oct-23 @ 08:55 UTC
(45 minutes ago)
VFR
Clouds
  • Clear skies
Temperature Dewpoint
-2°C / 28°F -5°C / 23°F
Humidity Altimeter Pressure
80% 30.33" Hg 1027 hPa